createdAt,value
2022-08-18T00:00:20.032Z,17.39
2022-08-18T00:02:58.070Z,17.53
2022-08-18T00:05:28.303Z,17.39
2022-08-18T00:07:57.969Z,17.28
2022-08-18T00:10:25.409Z,17.20
2022-08-18T00:12:52.102Z,16.84
2022-08-18T00:15:25.678Z,17.18
2022-08-18T00:17:52.518Z,17.49
2022-08-18T00:20:23.962Z,17.31
2022-08-18T00:22:52.226Z,17.43
2022-08-18T00:25:20.739Z,17.44
2022-08-18T00:27:47.162Z,16.93
2022-08-18T00:30:18.153Z,17.43
2022-08-18T00:32:48.778Z,17.30
2022-08-18T00:35:20.980Z,17.36
2022-08-18T00:37:48.991Z,17.31
2022-08-18T00:40:20.370Z,17.28
2022-08-18T00:42:50.083Z,17.24
2022-08-18T00:45:20.404Z,16.87
2022-08-18T00:47:47.018Z,16.79
2022-08-18T00:50:18.299Z,17.15
2022-08-18T00:52:58.293Z,17.13
2022-08-18T00:55:26.345Z,16.54
2022-08-18T00:58:01.249Z,16.88
2022-08-18T01:00:27.836Z,16.42
2022-08-18T01:03:00.076Z,15.91
2022-08-18T01:05:33.829Z,17.01
2022-08-18T01:08:00.492Z,16.99
2022-08-18T01:10:26.917Z,16.94
2022-08-18T01:12:55.930Z,16.64
2022-08-18T01:15:27.843Z,16.54
2022-08-18T01:18:15.033Z,16.81
2022-08-18T01:21:14.843Z,16.81
2022-08-18T01:23:41.877Z,15.66
2022-08-18T01:26:09.499Z,16.72
2022-08-18T01:28:39.006Z,16.79
2022-08-18T01:31:07.211Z,16.73
2022-08-18T01:33:43.710Z,16.70
2022-08-18T01:36:16.806Z,16.67
2022-08-18T01:38:45.405Z,16.66
2022-08-18T01:41:26.645Z,16.63
2022-08-18T01:44:02.313Z,16.11
2022-08-18T01:46:31.755Z,16.54
2022-08-18T01:49:00.611Z,15.06
2022-08-18T01:51:39.373Z,16.18
2022-08-18T01:54:08.508Z,16.43
2022-08-18T01:56:36.423Z,16.40
2022-08-18T01:59:03.422Z,16.40
2022-08-18T02:01:36.608Z,15.95
2022-08-18T02:04:33.319Z,16.19
2022-08-18T02:06:53.616Z,16.03
2022-08-18T02:09:23.728Z,16.40
2022-08-18T02:11:53.066Z,16.50
2022-08-18T02:14:27.082Z,16.22
2022-08-18T02:17:02.297Z,16.63
2022-08-18T02:19:35.742Z,16.67
2022-08-18T02:22:02.873Z,16.33
2022-08-18T02:24:29.490Z,16.43
2022-08-18T02:26:56.913Z,16.43
2022-08-18T02:29:23.672Z,16.19
2022-08-18T02:31:50.118Z,16.70
2022-08-18T02:34:17.630Z,16.65
2022-08-18T02:36:44.301Z,17.01
2022-08-18T02:39:11.252Z,16.54
2022-08-18T02:41:37.722Z,17.13
2022-08-18T02:44:07.397Z,17.16
2022-08-18T02:46:34.146Z,17.20
2022-08-18T02:49:01.088Z,16.93
2022-08-18T02:51:27.930Z,16.05
2022-08-18T02:56:42.034Z,17.26
2022-08-18T02:59:12.035Z,17.30
2022-08-18T03:01:41.667Z,17.32
2022-08-18T03:04:10.476Z,17.27
2022-08-18T03:06:38.154Z,17.32
2022-08-18T03:09:06.324Z,17.35
2022-08-18T03:11:32.738Z,16.84
2022-08-18T03:14:00.414Z,17.26
2022-08-18T03:16:27.785Z,17.25
2022-08-18T03:18:56.187Z,17.25
2022-08-18T03:21:25.111Z,17.08
2022-08-18T03:24:00.919Z,16.55
2022-08-18T03:26:29.837Z,16.55
2022-08-18T03:29:00.549Z,17.29
2022-08-18T03:31:31.159Z,17.30
2022-08-18T03:34:01.594Z,17.07
2022-08-18T03:36:31.901Z,17.04
2022-08-18T03:39:04.840Z,17.01
2022-08-18T03:41:57.654Z,17.11
2022-08-18T03:44:18.030Z,17.27
2022-08-18T03:46:45.146Z,17.30
2022-08-18T03:49:13.364Z,16.20
2022-08-18T03:51:49.214Z,17.32
2022-08-18T03:54:17.645Z,17.35
2022-08-18T03:56:46.151Z,16.80
2022-08-18T03:59:17.971Z,17.39
2022-08-18T04:01:46.046Z,17.28
2022-08-18T04:04:15.912Z,17.41
2022-08-18T04:06:46.169Z,17.27
2022-08-18T04:09:14.931Z,17.46
2022-08-18T04:11:43.469Z,17.46
2022-08-18T04:14:14.182Z,17.49
2022-08-18T04:16:41.177Z,16.76
2022-08-18T04:19:08.810Z,17.33
2022-08-18T04:21:39.692Z,17.32
2022-08-18T04:24:07.559Z,16.64
2022-08-18T04:26:41.055Z,17.51
2022-08-18T04:29:10.251Z,17.19
2022-08-18T04:31:37.336Z,17.03
2022-08-18T04:34:04.054Z,17.20
2022-08-18T04:36:35.733Z,17.63
2022-08-18T04:39:05.119Z,17.66
2022-08-18T04:41:31.697Z,16.78
2022-08-18T04:44:00.749Z,17.70
2022-08-18T04:46:28.499Z,17.77
2022-08-18T04:49:01.724Z,17.45
2022-08-18T04:52:37.206Z,17.82
2022-08-18T04:54:16.372Z,17.62
2022-08-18T04:56:45.131Z,17.52
2022-08-18T04:59:13.299Z,17.83
2022-08-18T05:01:45.984Z,17.42
2022-08-18T05:04:14.390Z,17.14
2022-08-18T05:06:43.325Z,17.82
2022-08-18T05:09:12.450Z,17.40
2022-08-18T05:11:44.340Z,17.80
2022-08-18T05:14:11.215Z,17.63
2022-08-18T05:16:48.127Z,17.78
2022-08-18T05:19:21.921Z,18.08
2022-08-18T05:21:51.369Z,18.11
2022-08-18T05:24:21.474Z,16.94
2022-08-18T05:26:48.956Z,17.61
2022-08-18T05:29:18.628Z,18.08
2022-08-18T05:31:47.213Z,18.37
2022-08-18T05:34:13.819Z,18.55
2022-08-18T05:36:49.409Z,18.63
2022-08-18T05:39:21.625Z,18.67
2022-08-18T05:42:01.763Z,18.54
2022-08-18T05:44:32.600Z,17.79
2022-08-18T05:47:11.636Z,17.87
2022-08-18T05:49:39.875Z,18.71
2022-08-18T05:52:12.884Z,18.78
2022-08-18T05:55:06.884Z,19.12
2022-08-18T05:57:42.837Z,19.17
2022-08-18T06:00:12.784Z,18.52
2022-08-18T06:02:45.995Z,19.21
2022-08-18T06:05:20.130Z,19.15
2022-08-18T06:08:03.457Z,18.86
2022-08-18T06:10:31.201Z,18.80
2022-08-18T06:13:00.060Z,18.88
2022-08-18T06:15:50.518Z,18.89
2022-08-18T06:18:54.292Z,19.31
2022-08-18T06:21:38.340Z,19.26
2022-08-18T06:24:20.706Z,19.30
2022-08-18T06:27:00.842Z,19.32
2022-08-18T06:30:05.211Z,19.33
2022-08-18T06:33:12.846Z,19.06
2022-08-18T06:35:49.316Z,19.29
2022-08-18T06:38:37.335Z,19.23
2022-08-18T06:41:09.585Z,19.14
2022-08-18T06:44:00.406Z,19.23
2022-08-18T06:46:44.330Z,19.28
2022-08-18T06:49:36.272Z,19.36
2022-08-18T06:52:35.965Z,19.29
2022-08-18T06:55:16.903Z,19.44
2022-08-18T06:57:57.645Z,18.57
2022-08-18T07:00:26.861Z,19.48
2022-08-18T07:03:04.337Z,19.20
2022-08-18T07:05:35.560Z,19.31
2022-08-18T07:08:20.471Z,19.35
2022-08-18T07:10:49.681Z,19.11
2022-08-18T07:13:20.730Z,18.31
2022-08-18T07:15:48.456Z,19.23
2022-08-18T07:18:23.260Z,19.19
2022-08-18T07:20:56.808Z,19.30
2022-08-18T07:23:27.612Z,18.96
2022-08-18T07:26:23.570Z,19.31
2022-08-18T07:28:51.878Z,19.32
2022-08-18T07:31:49.034Z,19.31
2022-08-18T07:34:25.719Z,19.22
2022-08-18T07:37:07.282Z,18.70
2022-08-18T07:40:00.053Z,19.04
2022-08-18T07:43:00.534Z,19.34
2022-08-18T07:45:35.833Z,19.00
2022-08-18T07:48:34.421Z,19.56
2022-08-18T07:51:08.923Z,19.34
2022-08-18T07:53:57.946Z,19.71
2022-08-18T07:56:41.113Z,19.73
2022-08-18T07:59:29.618Z,18.74
2022-08-18T08:02:13.331Z,19.83
2022-08-18T08:04:58.839Z,19.86
2022-08-18T08:07:31.192Z,19.18
2022-08-18T08:10:22.524Z,20.05
2022-08-18T08:13:54.719Z,20.23
2022-08-18T08:16:44.259Z,20.06
2022-08-18T08:20:00.192Z,20.46
2022-08-18T08:22:49.362Z,20.31
2022-08-18T08:25:45.916Z,20.34
2022-08-18T08:28:25.646Z,20.77
2022-08-18T08:31:36.278Z,20.61
2022-08-18T08:34:08.972Z,21.01
2022-08-18T08:36:42.634Z,21.17
2022-08-18T08:39:37.725Z,21.22
2022-08-18T08:42:30.799Z,21.40
2022-08-18T08:45:07.231Z,21.29
2022-08-18T08:47:58.434Z,21.17
2022-08-18T08:50:36.538Z,21.39
2022-08-18T08:53:12.837Z,21.43
2022-08-18T08:55:46.216Z,21.09
2022-08-18T08:58:30.634Z,21.60
2022-08-18T09:00:58.265Z,21.22
2022-08-18T09:03:33.421Z,21.61
2022-08-18T09:05:59.812Z,21.59
2022-08-18T09:09:04.045Z,21.57
2022-08-18T09:11:40.123Z,21.58
2022-08-18T09:14:42.539Z,21.66
2022-08-18T09:17:15.012Z,21.75
2022-08-18T09:19:57.010Z,21.67
2022-08-18T09:22:42.217Z,21.68
2022-08-18T09:25:44.904Z,21.62
2022-08-18T09:28:12.246Z,21.58
2022-08-18T09:31:08.574Z,21.72
2022-08-18T09:33:38.425Z,21.03
2022-08-18T09:36:10.600Z,22.07
2022-08-18T09:39:06.314Z,22.43
2022-08-18T09:41:49.017Z,22.82
2022-08-18T09:44:42.777Z,23.70
2022-08-18T09:47:10.151Z,23.61
2022-08-18T09:49:53.468Z,23.94
2022-08-18T09:52:21.299Z,24.24
2022-08-18T09:55:17.958Z,22.52
2022-08-18T09:57:46.553Z,23.80
2022-08-18T10:00:26.620Z,23.87
2022-08-18T10:02:55.167Z,24.17
2022-08-18T10:05:27.448Z,24.38
2022-08-18T10:08:21.304Z,23.48
2022-08-18T10:11:19.519Z,24.55
2022-08-18T10:13:58.830Z,24.25
2022-08-18T10:17:15.705Z,24.51
2022-08-18T10:20:25.786Z,24.20
2022-08-18T10:22:56.390Z,24.53
2022-08-18T10:26:00.361Z,24.84
2022-08-18T10:28:54.026Z,24.75
2022-08-18T10:31:24.149Z,24.51
2022-08-18T10:37:06.448Z,24.38
2022-08-18T10:40:01.117Z,24.88
2022-08-18T10:43:26.999Z,24.80
2022-08-18T10:46:24.706Z,24.27
2022-08-18T10:48:41.843Z,24.84
2022-08-18T10:51:11.559Z,25.28
2022-08-18T10:53:50.998Z,24.52
2022-08-18T10:56:31.897Z,24.77
2022-08-18T10:59:16.211Z,25.30
2022-08-18T11:02:08.112Z,25.57
2022-08-18T11:04:43.658Z,25.15
2022-08-18T11:07:23.425Z,25.12
2022-08-18T11:10:04.387Z,24.98
2022-08-18T11:13:01.563Z,25.24
2022-08-18T11:16:00.925Z,25.20
2022-08-18T11:18:43.022Z,25.76
2022-08-18T11:21:31.483Z,26.17
2022-08-18T11:27:24.505Z,26.05
2022-08-18T11:29:51.801Z,25.58
2022-08-18T11:32:30.682Z,25.20
2022-08-18T11:34:58.445Z,25.75
2022-08-18T11:37:51.239Z,25.57
2022-08-18T11:43:09.940Z,26.40
2022-08-18T11:45:43.947Z,27.06
2022-08-18T11:48:16.900Z,27.06
2022-08-18T11:50:59.004Z,26.82
2022-08-18T11:53:44.072Z,26.96
2022-08-18T11:56:14.349Z,27.06
2022-08-18T11:58:52.145Z,26.98
2022-08-18T12:01:45.859Z,26.41
2022-08-18T12:04:38.432Z,26.09
2022-08-18T12:07:08.171Z,26.23
2022-08-18T12:12:32.322Z,24.61
2022-08-18T12:15:24.666Z,25.16
2022-08-18T12:17:53.057Z,24.55
2022-08-18T12:20:21.081Z,24.59
2022-08-18T12:22:49.541Z,24.92
2022-08-18T12:25:25.267Z,24.62
2022-08-18T12:27:53.111Z,24.18
2022-08-18T12:30:22.051Z,22.89
2022-08-18T12:32:56.400Z,24.62
2022-08-18T12:35:32.408Z,24.15
2022-08-18T12:38:03.262Z,24.66
2022-08-18T12:40:31.604Z,24.44
2022-08-18T12:43:00.215Z,24.34
2022-08-18T12:45:27.892Z,24.54
2022-08-18T12:47:55.500Z,24.66
2022-08-18T12:50:31.834Z,24.94
2022-08-18T12:53:00.095Z,25.22
2022-08-18T12:55:29.355Z,24.99
2022-08-18T12:57:57.434Z,25.21
2022-08-18T13:00:27.804Z,25.64
2022-08-18T13:02:54.925Z,25.51
2022-08-18T13:05:26.303Z,25.32
2022-08-18T13:07:57.990Z,25.87
2022-08-18T13:10:42.928Z,25.62
2022-08-18T13:13:11.092Z,26.10
2022-08-18T13:15:37.628Z,26.21
2022-08-18T13:18:04.301Z,26.32
2022-08-18T13:20:30.694Z,26.47
2022-08-18T13:22:58.687Z,25.39
2022-08-18T13:25:33.032Z,27.08
2022-08-18T13:28:06.205Z,27.01
2022-08-18T13:30:33.081Z,26.45
2022-08-18T13:33:53.483Z,26.64
2022-08-18T13:35:54.433Z,25.96
2022-08-18T13:38:25.983Z,26.30
2022-08-18T13:41:00.210Z,25.85
2022-08-18T13:43:32.520Z,26.26
2022-08-18T13:46:01.440Z,26.04
2022-08-18T13:48:29.734Z,26.55
2022-08-18T13:50:58.837Z,26.15
2022-08-18T13:53:29.680Z,26.91
2022-08-18T13:56:00.481Z,26.81
2022-08-18T13:58:28.666Z,26.76
2022-08-18T14:04:01.127Z,26.58
2022-08-18T14:08:59.835Z,25.89
2022-08-18T14:11:33.228Z,26.08
2022-08-18T14:14:02.990Z,26.25
2022-08-18T14:16:29.688Z,26.76
2022-08-18T14:19:26.715Z,25.70
2022-08-18T14:22:15.290Z,26.69
2022-08-18T14:25:03.185Z,26.96
2022-08-18T14:27:35.011Z,26.71
2022-08-18T14:30:08.295Z,26.97
2022-08-18T14:32:36.075Z,27.66
2022-08-18T14:35:33.835Z,27.42
2022-08-18T14:37:52.266Z,27.22
2022-08-18T14:40:20.078Z,27.62
2022-08-18T14:42:54.829Z,27.10
2022-08-18T14:45:31.648Z,26.98
2022-08-18T14:48:06.552Z,27.45
2022-08-18T14:50:37.518Z,27.38
2022-08-18T14:53:05.986Z,27.32
2022-08-18T14:55:32.406Z,27.20
2022-08-18T14:58:01.159Z,27.13
2022-08-18T15:00:28.252Z,27.33
2022-08-18T15:02:55.410Z,27.41
2022-08-18T15:05:24.614Z,27.17
2022-08-18T15:07:52.371Z,27.05
2022-08-18T15:10:23.708Z,27.18
2022-08-18T15:12:54.919Z,27.34
2022-08-18T15:15:22.365Z,27.49
2022-08-18T15:17:52.648Z,27.33
2022-08-18T15:20:28.956Z,27.09
2022-08-18T15:23:25.077Z,27.32
2022-08-18T15:25:56.543Z,26.98
2022-08-18T15:28:26.261Z,27.13
2022-08-18T15:31:16.472Z,26.85
2022-08-18T15:33:39.608Z,26.99
2022-08-18T15:36:09.927Z,27.03
2022-08-18T15:38:37.029Z,26.88
2022-08-18T15:41:06.323Z,26.77
2022-08-18T15:43:37.045Z,27.10
2022-08-18T15:46:12.580Z,27.05
2022-08-18T15:48:43.022Z,26.96
2022-08-18T15:51:12.217Z,26.40
2022-08-18T15:53:44.573Z,27.29
2022-08-18T15:56:31.529Z,27.30
2022-08-18T15:59:00.488Z,27.55
2022-08-18T16:01:32.102Z,27.08
2022-08-18T16:03:59.733Z,27.42
2022-08-18T16:06:27.727Z,27.64
2022-08-18T16:09:01.388Z,27.12
2022-08-18T16:11:29.664Z,27.34
2022-08-18T16:14:01.147Z,26.53
2022-08-18T16:16:35.840Z,26.43
2022-08-18T16:19:05.555Z,26.21
2022-08-18T16:21:32.192Z,26.65
2022-08-18T16:23:58.664Z,26.58
2022-08-18T16:26:25.047Z,25.96
2022-08-18T16:28:53.211Z,26.39
2022-08-18T16:31:28.168Z,26.56
2022-08-18T16:33:59.838Z,26.40
2022-08-18T16:36:26.404Z,26.05
2022-08-18T16:38:53.830Z,25.97
2022-08-18T16:41:22.475Z,25.96
2022-08-18T16:43:49.354Z,26.24
2022-08-18T16:46:25.926Z,26.06
2022-08-18T16:48:53.473Z,25.94
2022-08-18T16:51:22.373Z,26.02
2022-08-18T16:53:52.072Z,25.64
2022-08-18T16:56:21.752Z,25.91
2022-08-18T16:59:07.481Z,26.00
2022-08-18T17:01:52.652Z,26.05
2022-08-18T17:04:22.856Z,25.96
2022-08-18T17:06:50.119Z,25.22
2022-08-18T17:09:17.799Z,25.92
2022-08-18T17:11:51.553Z,25.78
2022-08-18T17:14:20.048Z,25.91
2022-08-18T17:16:48.758Z,25.65
2022-08-18T17:19:15.342Z,25.36
2022-08-18T17:21:41.821Z,25.81
2022-08-18T17:24:11.376Z,25.71
2022-08-18T17:26:56.800Z,25.63
2022-08-18T17:29:50.078Z,25.48
2022-08-18T17:32:28.025Z,25.42
2022-08-18T17:35:13.012Z,25.32
2022-08-18T17:37:49.141Z,25.38
2022-08-18T17:40:23.361Z,25.36
2022-08-18T17:42:51.683Z,24.97
2022-08-18T17:45:21.659Z,24.92
2022-08-18T17:47:56.932Z,25.16
2022-08-18T17:50:59.923Z,24.95
2022-08-18T17:53:26.264Z,25.04
2022-08-18T17:56:06.648Z,24.49
2022-08-18T17:58:58.246Z,24.37
2022-08-18T18:01:27.117Z,24.53
2022-08-18T18:03:54.026Z,24.91
2022-08-18T18:06:36.012Z,24.89
2022-08-18T18:09:09.379Z,24.83
2022-08-18T18:11:40.194Z,24.63
2022-08-18T18:14:34.711Z,24.66
2022-08-18T18:17:28.914Z,24.66
2022-08-18T18:20:17.368Z,24.49
2022-08-18T18:22:45.693Z,24.09
2022-08-18T18:25:13.513Z,24.55
2022-08-18T18:27:43.571Z,24.49
2022-08-18T18:30:16.994Z,24.43
2022-08-18T18:33:13.578Z,23.84
2022-08-18T18:35:54.397Z,23.99
2022-08-18T18:38:26.033Z,24.13
2022-08-18T18:41:13.811Z,23.97
2022-08-18T18:43:44.446Z,23.84
2022-08-18T18:46:18.891Z,23.71
2022-08-18T18:49:16.969Z,23.58
2022-08-18T18:51:50.746Z,23.29
2022-08-18T18:54:40.362Z,23.12
2022-08-18T18:57:18.486Z,23.29
2022-08-18T19:00:03.424Z,23.26
2022-08-18T19:02:44.865Z,23.21
2022-08-18T19:05:27.897Z,23.16
2022-08-18T19:08:06.622Z,23.13
2022-08-18T19:10:45.075Z,23.09
2022-08-18T19:13:32.618Z,23.05
2022-08-18T19:16:28.317Z,23.02
2022-08-18T19:19:37.453Z,22.87
2022-08-18T19:22:05.601Z,22.73
2022-08-18T19:24:39.193Z,22.41
2022-08-18T19:27:10.652Z,22.66
2022-08-18T19:29:41.851Z,22.82
2022-08-18T19:32:16.332Z,22.20
2022-08-18T19:34:51.621Z,22.73
2022-08-18T19:38:04.438Z,22.27
2022-08-18T19:40:54.381Z,22.59
2022-08-18T19:43:47.344Z,22.47
2022-08-18T19:46:22.745Z,22.40
2022-08-18T19:49:03.547Z,22.30
2022-08-18T19:51:38.511Z,22.25
2022-08-18T19:54:34.454Z,21.89
2022-08-18T19:57:23.247Z,22.13
2022-08-18T20:00:20.374Z,22.00
2022-08-18T20:03:33.299Z,21.53
2022-08-18T20:06:34.662Z,21.84
2022-08-18T20:09:20.078Z,21.76
2022-08-18T20:12:01.961Z,21.32
2022-08-18T20:14:33.026Z,21.51
2022-08-18T20:17:16.595Z,21.60
2022-08-18T20:19:59.322Z,21.55
2022-08-18T20:22:30.301Z,21.50
2022-08-18T20:25:07.344Z,21.48
2022-08-18T20:27:36.396Z,21.44
2022-08-18T20:30:24.039Z,21.37
2022-08-18T20:33:25.842Z,21.30
2022-08-18T20:35:52.413Z,21.22
2022-08-18T20:38:21.801Z,21.16
2022-08-18T20:40:51.370Z,20.70
2022-08-18T20:43:34.318Z,21.02
2022-08-18T20:46:35.147Z,20.96
2022-08-18T20:49:36.637Z,20.89
2022-08-18T20:52:15.540Z,20.49
2022-08-18T20:54:58.513Z,20.22
2022-08-18T20:57:27.607Z,20.67
2022-08-18T21:00:04.206Z,20.30
2022-08-18T21:02:38.319Z,20.56
2022-08-18T21:05:05.266Z,20.18
2022-08-18T21:07:37.947Z,20.36
2022-08-18T21:10:20.241Z,20.29
2022-08-18T21:12:55.796Z,20.11
2022-08-18T21:15:27.457Z,20.48
2022-08-18T21:18:02.644Z,20.54
2022-08-18T21:20:31.487Z,20.27
2022-08-18T21:23:06.405Z,20.51
2022-08-18T21:25:33.194Z,20.44
2022-08-18T21:28:03.180Z,20.39
2022-08-18T21:30:31.525Z,20.33
2022-08-18T21:32:58.138Z,20.28
2022-08-18T21:35:38.093Z,20.26
2022-08-18T21:38:07.927Z,20.13
2022-08-18T21:40:34.303Z,20.20
2022-08-18T21:43:04.647Z,19.62
2022-08-18T21:45:33.151Z,19.60
2022-08-18T21:48:05.601Z,19.53
2022-08-18T21:50:34.898Z,19.96
2022-08-18T21:53:16.261Z,20.01
2022-08-18T21:55:46.251Z,19.68
2022-08-18T21:58:18.696Z,19.90
2022-08-18T22:01:06.806Z,19.10
2022-08-18T22:03:36.162Z,19.79
2022-08-18T22:06:24.834Z,19.75
2022-08-18T22:09:24.310Z,19.68
2022-08-18T22:12:38.185Z,19.46
2022-08-18T22:15:27.446Z,19.57
2022-08-18T22:18:08.060Z,19.52
2022-08-18T22:20:43.299Z,19.31
2022-08-18T22:23:34.445Z,19.42
2022-08-18T22:26:16.031Z,19.37
2022-08-18T22:28:54.665Z,18.51
2022-08-18T22:31:23.228Z,18.88
2022-08-18T22:33:51.847Z,19.20
2022-08-18T22:36:21.762Z,19.14
2022-08-18T22:38:48.966Z,18.93
2022-08-18T22:41:16.821Z,17.77
2022-08-18T22:43:43.917Z,19.00
2022-08-18T22:46:11.461Z,17.94
2022-08-18T22:48:38.738Z,18.76
2022-08-18T22:51:05.920Z,17.86
2022-08-18T22:53:32.385Z,18.90
2022-08-18T22:56:05.901Z,18.92
2022-08-18T22:58:36.680Z,18.80
2022-08-18T23:01:06.136Z,18.68
2022-08-18T23:03:34.410Z,18.62
2022-08-18T23:06:09.566Z,18.87
2022-08-18T23:08:54.689Z,18.67
2022-08-18T23:11:24.099Z,17.62
2022-08-18T23:13:51.101Z,18.77
2022-08-18T23:16:31.302Z,17.91
2022-08-18T23:19:02.451Z,18.78
2022-08-18T23:21:35.143Z,18.75
2022-08-18T23:24:07.537Z,18.10
2022-08-18T23:26:34.449Z,18.72
2022-08-18T23:29:05.021Z,18.69
2022-08-18T23:31:32.536Z,18.04
2022-08-18T23:34:01.981Z,17.88
2022-08-18T23:36:30.783Z,18.58
2022-08-18T23:39:02.901Z,18.19
2022-08-18T23:41:29.506Z,18.52
2022-08-18T23:43:56.668Z,17.94
2022-08-18T23:46:27.905Z,18.46
2022-08-18T23:49:00.275Z,18.45
2022-08-18T23:51:34.768Z,18.42
2022-08-18T23:54:04.799Z,18.37
2022-08-18T23:56:32.269Z,17.81
2022-08-18T23:59:00.088Z,18.29
